createdAt,value
2018-10-18T00:02:10.354Z,9.30
2018-10-18T00:04:38.851Z,9.20
2018-10-18T00:07:07.565Z,9.30
2018-10-18T00:09:36.032Z,9.20
2018-10-18T00:12:05.063Z,9.30
2018-10-18T00:14:33.957Z,9.30
2018-10-18T00:17:02.421Z,9.30
2018-10-18T00:19:30.922Z,9.30
2018-10-18T00:22:00.716Z,9.30
2018-10-18T00:24:29.849Z,9.20
2018-10-18T00:26:58.326Z,9.30
2018-10-18T00:29:26.847Z,9.30
2018-10-18T00:31:55.342Z,9.30
2018-10-18T00:34:23.807Z,9.30
2018-10-18T00:36:53.014Z,9.20
2018-10-18T00:39:21.480Z,9.10
2018-10-18T00:41:49.991Z,9.10
2018-10-18T00:44:18.588Z,9.10
2018-10-18T00:46:47.034Z,9.10
2018-10-18T00:54:17.462Z,9.00
2018-10-18T00:56:45.934Z,8.90
2018-10-18T00:59:15.511Z,9.00
2018-10-18T01:01:44.048Z,8.90
2018-10-18T01:04:12.506Z,8.90
2018-10-18T01:06:40.974Z,8.90
2018-10-18T01:09:10.644Z,8.90
2018-10-18T01:11:39.138Z,8.80
2018-10-18T01:14:07.738Z,8.90
2018-10-18T01:16:36.706Z,8.80
2018-10-18T01:19:06.509Z,8.80
2018-10-18T01:21:35.006Z,8.90
2018-10-18T01:24:03.587Z,8.80
2018-10-18T01:26:32.864Z,8.80
2018-10-18T01:29:01.426Z,8.80
2018-10-18T01:31:30.254Z,8.80
2018-10-18T01:33:58.715Z,8.80
2018-10-18T01:36:27.190Z,8.80
2018-10-18T01:38:55.734Z,8.80
2018-10-18T01:41:24.219Z,8.80
2018-10-18T01:43:52.811Z,8.70
2018-10-18T01:46:21.317Z,8.70
2018-10-18T01:48:49.840Z,8.70
2018-10-18T01:51:18.293Z,8.60
2018-10-18T01:53:48.040Z,8.50
2018-10-18T01:56:17.468Z,8.50
2018-10-18T01:58:45.911Z,8.40
2018-10-18T02:06:14.149Z,8.40
2018-10-18T02:08:42.594Z,8.20
2018-10-18T02:11:11.118Z,8.20
2018-10-18T02:13:39.698Z,8.10
2018-10-18T02:16:08.784Z,8.10
2018-10-18T02:18:37.275Z,8.10
2018-10-18T02:21:06.218Z,8.00
2018-10-18T02:23:35.109Z,8.10
2018-10-18T02:26:03.851Z,8.00
2018-10-18T02:28:33.316Z,8.00
2018-10-18T02:31:01.794Z,7.90
2018-10-18T02:33:30.276Z,7.90
2018-10-18T02:35:59.284Z,7.90
2018-10-18T02:38:27.734Z,8.00
2018-10-18T02:40:56.247Z,8.00
2018-10-18T02:43:24.746Z,8.00
2018-10-18T02:45:53.373Z,7.90
2018-10-18T02:48:21.928Z,8.00
2018-10-18T02:50:50.852Z,8.00
2018-10-18T02:53:19.409Z,8.00
2018-10-18T02:55:47.927Z,8.00
2018-10-18T02:58:17.422Z,8.00
2018-10-18T03:00:45.973Z,8.00
2018-10-18T03:08:14.426Z,8.00
2018-10-18T03:10:42.954Z,8.00
2018-10-18T03:13:11.459Z,8.00
2018-10-18T03:15:39.972Z,8.00
2018-10-18T03:18:08.560Z,8.00
2018-10-18T03:20:37.014Z,7.90
2018-10-18T03:23:05.647Z,7.80
2018-10-18T03:25:34.109Z,7.80
2018-10-18T03:28:02.577Z,7.70
2018-10-18T03:30:32.373Z,7.70
2018-10-18T03:33:00.869Z,7.80
2018-10-18T03:35:29.337Z,7.80
2018-10-18T03:37:57.841Z,7.80
2018-10-18T03:40:26.331Z,7.70
2018-10-18T03:42:54.829Z,7.70
2018-10-18T03:45:23.362Z,7.60
2018-10-18T03:47:51.960Z,7.60
2018-10-18T03:50:21.001Z,7.50
2018-10-18T03:52:50.047Z,7.50
2018-10-18T03:55:18.613Z,7.50
2018-10-18T03:57:47.134Z,7.40
2018-10-18T04:05:15.495Z,7.50
2018-10-18T04:07:44.075Z,7.60
2018-10-18T04:10:12.615Z,7.50
2018-10-18T04:12:41.403Z,7.60
2018-10-18T04:15:09.943Z,7.50
2018-10-18T04:17:38.453Z,7.50
2018-10-18T04:20:07.476Z,7.50
2018-10-18T04:22:36.048Z,7.50
2018-10-18T04:25:04.782Z,7.60
2018-10-18T04:27:33.407Z,7.50
2018-10-18T04:30:02.253Z,7.50
2018-10-18T04:32:31.357Z,7.50
2018-10-18T04:35:00.164Z,7.50
2018-10-18T04:37:28.917Z,7.50
2018-10-18T04:39:57.286Z,7.60
2018-10-18T04:42:25.802Z,7.60
2018-10-18T04:44:54.830Z,7.60
2018-10-18T04:47:23.484Z,7.60
2018-10-18T04:49:52.009Z,7.70
2018-10-18T04:52:20.558Z,7.60
2018-10-18T04:54:49.051Z,7.50
2018-10-18T04:57:19.045Z,7.50
2018-10-18T04:59:47.596Z,7.50
2018-10-18T05:07:10.192Z,7.40
2018-10-18T05:09:39.295Z,7.40
2018-10-18T05:12:08.413Z,7.30
2018-10-18T05:14:37.182Z,7.30
2018-10-18T05:17:06.429Z,7.20
2018-10-18T05:19:34.930Z,7.20
2018-10-18T05:22:03.557Z,7.20
2018-10-18T05:24:32.090Z,7.30
2018-10-18T05:27:00.574Z,7.30
2018-10-18T05:29:29.109Z,7.30
2018-10-18T05:31:57.603Z,7.30
2018-10-18T05:34:26.605Z,7.30
2018-10-18T05:36:56.797Z,7.30
2018-10-18T05:39:25.303Z,7.30
2018-10-18T05:41:53.842Z,7.50
2018-10-18T05:44:22.438Z,7.50
2018-10-18T05:46:51.131Z,7.50
2018-10-18T05:49:19.641Z,7.60
2018-10-18T05:51:48.114Z,7.60
2018-10-18T05:54:17.580Z,7.50
2018-10-18T05:56:46.094Z,7.50
2018-10-18T06:04:15.762Z,7.70
2018-10-18T06:06:44.256Z,7.70
2018-10-18T06:09:14.982Z,7.80
2018-10-18T06:11:43.477Z,7.80
2018-10-18T06:14:12.334Z,7.90
2018-10-18T06:16:40.807Z,8.00
2018-10-18T06:19:09.413Z,8.10
2018-10-18T06:21:38.183Z,8.10
2018-10-18T06:24:06.334Z,8.20
2018-10-18T06:26:35.485Z,8.30
2018-10-18T06:29:04.011Z,8.40
2018-10-18T06:31:32.678Z,8.50
2018-10-18T06:34:01.198Z,8.50
2018-10-18T06:36:29.926Z,8.60
2018-10-18T06:38:58.444Z,8.80
2018-10-18T06:41:27.181Z,8.90
2018-10-18T06:43:55.658Z,9.00
2018-10-18T06:46:24.161Z,8.90
2018-10-18T06:48:53.229Z,9.10
2018-10-18T06:51:21.713Z,9.00
2018-10-18T06:53:50.178Z,9.10
2018-10-18T06:56:18.702Z,9.10
2018-10-18T06:58:47.172Z,9.10
2018-10-18T07:06:11.901Z,9.30
2018-10-18T07:08:40.333Z,9.50
2018-10-18T07:11:08.952Z,9.60
2018-10-18T07:13:37.430Z,9.80
2018-10-18T07:16:06.841Z,9.90
2018-10-18T07:18:36.050Z,10.00
2018-10-18T07:21:06.757Z,9.80
2018-10-18T07:23:35.292Z,9.70
2018-10-18T07:26:03.802Z,9.60
2018-10-18T07:28:32.772Z,9.70
2018-10-18T07:31:02.214Z,10.00
2018-10-18T07:33:30.711Z,10.30
2018-10-18T07:35:59.264Z,11.10
2018-10-18T07:38:28.273Z,12.30
2018-10-18T07:40:56.772Z,13.50
2018-10-18T07:43:25.315Z,14.80
2018-10-18T07:45:53.919Z,16.50
2018-10-18T07:48:24.108Z,17.80
2018-10-18T07:50:53.219Z,18.60
2018-10-18T07:53:21.778Z,19.50
2018-10-18T07:55:50.274Z,20.50
2018-10-18T07:58:18.826Z,21.40
2018-10-18T08:00:47.500Z,22.10
2018-10-18T08:08:12.105Z,22.70
2018-10-18T08:10:40.653Z,23.40
2018-10-18T08:13:09.465Z,23.90
2018-10-18T08:15:38.026Z,24.40
2018-10-18T08:18:06.575Z,24.80
2018-10-18T08:20:35.091Z,25.20
2018-10-18T08:23:04.960Z,25.50
2018-10-18T08:25:33.463Z,25.50
2018-10-18T08:28:01.952Z,25.50
2018-10-18T08:30:30.690Z,25.70
2018-10-18T08:32:59.692Z,25.70
2018-10-18T08:35:28.217Z,25.10
2018-10-18T08:37:57.547Z,25.40
2018-10-18T08:40:26.529Z,25.50
2018-10-18T08:42:55.095Z,25.90
2018-10-18T08:45:23.872Z,26.50
2018-10-18T08:47:52.354Z,27.00
2018-10-18T08:50:20.890Z,27.20
2018-10-18T08:52:50.222Z,27.60
2018-10-18T08:55:18.759Z,27.70
2018-10-18T08:57:47.222Z,27.80
2018-10-18T09:05:11.306Z,27.70
2018-10-18T09:07:39.782Z,28.70
2018-10-18T09:10:08.884Z,29.20
2018-10-18T09:12:37.766Z,29.30
2018-10-18T09:15:08.172Z,29.40
2018-10-18T09:17:41.874Z,29.40
2018-10-18T09:20:10.401Z,29.40
2018-10-18T09:22:38.862Z,29.60
2018-10-18T09:25:08.514Z,29.80
2018-10-18T09:27:37.189Z,30.10
2018-10-18T09:30:07.330Z,29.80
2018-10-18T09:32:36.002Z,29.20
2018-10-18T09:35:04.960Z,28.50
2018-10-18T09:37:33.445Z,28.00
2018-10-18T09:40:01.977Z,27.60
2018-10-18T09:42:31.300Z,27.40
2018-10-18T09:44:59.954Z,27.30
2018-10-18T09:47:28.544Z,27.30
2018-10-18T09:49:57.018Z,27.10
2018-10-18T09:52:25.522Z,27.60
2018-10-18T09:54:54.846Z,27.50
2018-10-18T09:57:23.318Z,27.40
2018-10-18T09:59:51.815Z,27.30
2018-10-18T10:02:25.601Z,26.70
2018-10-18T10:04:54.098Z,26.00
2018-10-18T10:07:22.608Z,25.60
2018-10-18T10:09:51.136Z,25.30
2018-10-18T10:12:19.699Z,24.90
2018-10-18T10:14:48.274Z,24.50
2018-10-18T10:17:18.102Z,24.30
2018-10-18T10:19:46.593Z,24.20
2018-10-18T10:27:15.974Z,23.70
2018-10-18T10:29:44.489Z,23.00
2018-10-18T10:32:12.961Z,22.80
2018-10-18T10:34:41.670Z,22.60
2018-10-18T10:37:10.195Z,22.50
2018-10-18T10:39:38.631Z,22.50
2018-10-18T10:42:07.572Z,22.20
2018-10-18T10:44:36.233Z,22.00
2018-10-18T10:47:05.132Z,21.80
2018-10-18T10:49:33.678Z,21.80
2018-10-18T10:52:02.328Z,21.70
2018-10-18T10:54:30.770Z,21.70
2018-10-18T10:57:00.613Z,21.50
2018-10-18T10:59:29.162Z,21.40
2018-10-18T11:01:57.799Z,21.00
2018-10-18T11:04:26.357Z,20.70
2018-10-18T11:06:54.849Z,20.50
2018-10-18T11:09:23.422Z,20.40
2018-10-18T11:11:51.948Z,20.30
2018-10-18T11:14:20.410Z,20.10
2018-10-18T11:16:48.888Z,20.10
2018-10-18T11:19:17.888Z,20.00
2018-10-18T11:21:46.662Z,20.00
2018-10-18T11:29:15.402Z,20.20
2018-10-18T11:31:43.920Z,20.00
2018-10-18T11:34:12.461Z,20.00
2018-10-18T11:36:41.354Z,20.00
2018-10-18T11:39:10.334Z,19.80
2018-10-18T11:41:38.869Z,19.80
2018-10-18T11:44:07.461Z,19.80
2018-10-18T11:46:36.546Z,19.80
2018-10-18T11:49:05.250Z,19.80
2018-10-18T11:51:34.081Z,19.70
2018-10-18T11:54:02.578Z,19.70
2018-10-18T11:56:31.106Z,19.70
2018-10-18T11:59:00.623Z,19.70
2018-10-18T12:01:29.130Z,19.60
2018-10-18T12:03:57.683Z,19.50
2018-10-18T12:06:26.223Z,19.50
2018-10-18T12:08:55.150Z,19.50
2018-10-18T12:11:23.742Z,19.40
2018-10-18T12:13:52.352Z,19.40
2018-10-18T12:16:20.968Z,19.30
2018-10-18T12:18:49.803Z,19.30
2018-10-18T12:21:18.718Z,19.20
2018-10-18T12:23:47.306Z,19.20
2018-10-18T12:26:17.832Z,19.20
2018-10-18T12:28:46.356Z,19.10
2018-10-18T12:36:14.581Z,19.20
2018-10-18T12:38:43.202Z,19.00
2018-10-18T12:41:11.944Z,19.00
2018-10-18T12:43:41.357Z,19.00
2018-10-18T12:46:09.897Z,19.00
2018-10-18T12:48:39.054Z,19.10
2018-10-18T12:51:07.632Z,19.20
2018-10-18T12:53:36.186Z,19.20
2018-10-18T12:56:05.194Z,19.30
2018-10-18T12:58:34.833Z,19.30
2018-10-18T13:01:03.370Z,19.40
2018-10-18T13:03:32.591Z,19.40
2018-10-18T13:06:01.968Z,19.40
2018-10-18T13:08:31.025Z,19.30
2018-10-18T13:10:59.559Z,19.20
2018-10-18T13:13:29.256Z,19.20
2018-10-18T13:15:57.836Z,19.20
2018-10-18T13:18:26.360Z,19.20
2018-10-18T13:20:54.895Z,19.20
2018-10-18T13:23:23.443Z,19.10
2018-10-18T13:25:51.992Z,19.10
2018-10-18T13:28:21.211Z,19.10
2018-10-18T13:30:49.766Z,19.10
2018-10-18T13:33:19.049Z,19.10
2018-10-18T13:35:47.678Z,19.10
2018-10-18T13:38:17.986Z,19.20
2018-10-18T13:40:46.520Z,19.20
2018-10-18T13:48:14.663Z,19.00
2018-10-18T13:50:44.070Z,19.10
2018-10-18T13:53:12.900Z,19.00
2018-10-18T13:55:41.486Z,19.00
2018-10-18T13:58:12.146Z,18.90
2018-10-18T14:00:40.642Z,19.00
2018-10-18T14:03:09.291Z,19.00
2018-10-18T14:05:37.914Z,19.00
2018-10-18T14:08:06.701Z,19.00
2018-10-18T14:10:35.607Z,18.90
2018-10-18T14:13:04.206Z,18.90
2018-10-18T14:15:32.809Z,19.00
2018-10-18T14:18:01.737Z,18.90
2018-10-18T14:20:30.512Z,18.90
2018-10-18T14:22:59.069Z,18.90
2018-10-18T14:25:27.731Z,18.80
2018-10-18T14:27:56.682Z,18.70
2018-10-18T14:30:25.338Z,18.70
2018-10-18T14:32:54.082Z,18.60
2018-10-18T14:35:22.730Z,18.70
2018-10-18T14:37:51.302Z,18.60
2018-10-18T14:40:19.992Z,18.60
2018-10-18T14:42:49.347Z,18.60
2018-10-18T14:45:18.001Z,18.60
2018-10-18T14:47:46.700Z,18.50
2018-10-18T14:55:14.911Z,18.40
2018-10-18T14:57:47.472Z,18.20
2018-10-18T15:05:12.154Z,18.20
2018-10-18T15:07:41.584Z,18.10
2018-10-18T15:10:11.521Z,18.10
2018-10-18T15:12:42.393Z,18.10
2018-10-18T15:15:13.728Z,18.10
2018-10-18T15:17:43.694Z,18.10
2018-10-18T15:20:14.642Z,18.00
2018-10-18T15:22:43.562Z,18.00
2018-10-18T15:25:13.043Z,18.00
2018-10-18T15:27:42.215Z,18.00
2018-10-18T15:30:24.015Z,17.90
2018-10-18T15:32:53.843Z,17.90
2018-10-18T15:35:22.431Z,17.90
2018-10-18T15:37:50.985Z,17.90
2018-10-18T15:40:19.596Z,17.90
2018-10-18T15:42:48.178Z,17.80
2018-10-18T15:45:18.228Z,17.80
2018-10-18T15:47:46.825Z,17.80
2018-10-18T15:57:32.375Z,17.70
2018-10-18T16:00:00.922Z,17.50
2018-10-18T16:02:29.435Z,17.30
2018-10-18T16:04:58.026Z,17.20
2018-10-18T16:07:26.620Z,17.10
2018-10-18T16:09:55.355Z,17.00
2018-10-18T16:12:24.769Z,16.90
2018-10-18T16:14:53.301Z,16.80
2018-10-18T16:17:21.884Z,16.70
2018-10-18T16:19:50.501Z,16.60
2018-10-18T16:22:19.077Z,16.60
2018-10-18T16:24:47.595Z,16.40
2018-10-18T16:32:15.298Z,16.20
2018-10-18T16:34:43.813Z,16.10
2018-10-18T16:37:12.367Z,15.90
2018-10-18T16:39:41.450Z,15.90
2018-10-18T16:42:10.823Z,15.80
2018-10-18T16:44:39.621Z,15.70
2018-10-18T16:47:08.301Z,15.70
2018-10-18T16:49:36.819Z,15.60
2018-10-18T16:52:05.597Z,15.60
2018-10-18T16:54:34.379Z,15.50
2018-10-18T16:57:02.890Z,15.40
2018-10-18T16:59:32.608Z,15.30
2018-10-18T17:02:01.731Z,15.30
2018-10-18T17:04:32.078Z,15.20
2018-10-18T17:07:00.629Z,15.10
2018-10-18T17:09:29.239Z,15.10
2018-10-18T17:11:57.854Z,15.00
2018-10-18T17:14:26.512Z,14.90
2018-10-18T17:16:55.046Z,14.80
2018-10-18T17:19:23.526Z,14.80
2018-10-18T17:21:52.174Z,14.70
2018-10-18T17:24:20.733Z,14.70
2018-10-18T17:26:49.323Z,14.60
2018-10-18T17:29:17.870Z,14.50
2018-10-18T17:31:46.438Z,14.40
2018-10-18T17:37:52.858Z,14.30
2018-10-18T17:40:21.630Z,14.30
2018-10-18T17:42:50.804Z,14.20
2018-10-18T17:45:19.497Z,14.20
2018-10-18T17:47:48.130Z,14.10
2018-10-18T17:50:17.851Z,14.10
2018-10-18T17:52:46.618Z,14.10
2018-10-18T18:02:25.556Z,14.00
2018-10-18T18:04:55.578Z,13.80
2018-10-18T18:07:24.731Z,13.70
2018-10-18T18:09:53.843Z,13.70
2018-10-18T18:12:22.523Z,13.60
2018-10-18T18:14:52.287Z,13.50
2018-10-18T18:17:21.363Z,13.60
2018-10-18T18:19:50.452Z,13.60
2018-10-18T18:22:19.777Z,13.50
2018-10-18T18:24:48.522Z,13.50
2018-10-18T18:27:17.408Z,13.50
2018-10-18T18:29:46.004Z,13.40
2018-10-18T18:42:07.127Z,13.20
2018-10-18T18:44:36.741Z,13.10
2018-10-18T18:47:05.490Z,13.10
2018-10-18T18:49:34.200Z,13.00
2018-10-18T18:52:02.956Z,13.00
2018-10-18T18:54:31.526Z,13.00
2018-10-18T18:57:00.249Z,13.00
2018-10-18T18:59:28.836Z,12.90
2018-10-18T19:01:57.454Z,12.90
2018-10-18T19:04:26.417Z,12.90
2018-10-18T19:06:57.171Z,12.80
2018-10-18T19:09:25.736Z,12.80
2018-10-18T19:11:55.142Z,12.70
2018-10-18T19:14:23.696Z,12.70
2018-10-18T19:16:52.333Z,12.60
2018-10-18T19:19:21.890Z,12.60
2018-10-18T19:22:03.656Z,12.60
2018-10-18T19:24:32.772Z,12.50
2018-10-18T19:28:13.930Z,12.50
2018-10-18T19:30:45.251Z,12.50
2018-10-18T19:38:15.712Z,12.40
2018-10-18T19:40:46.191Z,12.30
2018-10-18T19:48:09.939Z,12.30
2018-10-18T19:56:51.456Z,12.10
2018-10-18T19:59:20.066Z,12.10
2018-10-18T20:01:49.987Z,12.10
2018-10-18T20:04:19.166Z,12.10
2018-10-18T20:06:49.707Z,12.00
2018-10-18T20:09:19.004Z,12.00
2018-10-18T20:11:47.591Z,12.00
2018-10-18T20:19:15.511Z,11.90
2018-10-18T20:21:44.164Z,11.80
2018-10-18T20:24:12.834Z,11.70
2018-10-18T20:26:43.191Z,11.70
2018-10-18T20:29:11.874Z,11.60
2018-10-18T20:31:40.420Z,11.60
2018-10-18T20:34:09.055Z,11.70
2018-10-18T20:36:37.872Z,11.60
2018-10-18T20:39:09.797Z,11.50
2018-10-18T20:41:38.399Z,11.50
2018-10-18T20:44:07.529Z,11.40
2018-10-18T20:46:36.343Z,11.50
2018-10-18T20:49:05.534Z,11.50
2018-10-18T20:51:34.058Z,11.40
2018-10-18T20:54:02.847Z,11.40
2018-10-18T20:56:31.767Z,11.30
2018-10-18T20:59:01.167Z,11.30
2018-10-18T21:01:30.395Z,11.30
2018-10-18T21:04:00.177Z,11.30
2018-10-18T21:06:29.901Z,11.20
2018-10-18T21:09:00.224Z,11.20
2018-10-18T21:11:29.952Z,11.20
2018-10-18T21:14:07.107Z,11.10
2018-10-18T21:16:35.883Z,11.10
2018-10-18T21:19:05.903Z,11.10
2018-10-18T21:21:36.892Z,11.00
2018-10-18T21:24:06.404Z,11.10
2018-10-18T21:26:35.098Z,11.00
2018-10-18T21:29:04.213Z,10.90
2018-10-18T21:31:32.960Z,11.00
2018-10-18T21:34:02.857Z,10.90
2018-10-18T21:36:32.094Z,10.90
2018-10-18T21:39:01.662Z,10.80
2018-10-18T21:41:30.384Z,10.80
2018-10-18T21:43:59.540Z,10.80
2018-10-18T21:46:28.208Z,10.90
2018-10-18T21:48:56.962Z,10.70
2018-10-18T21:51:25.978Z,10.70
2018-10-18T21:53:54.675Z,10.60
2018-10-18T21:56:24.033Z,10.60
2018-10-18T21:58:52.683Z,10.50
2018-10-18T22:01:21.399Z,10.50
2018-10-18T22:03:50.091Z,10.40
2018-10-18T22:06:19.319Z,10.30
2018-10-18T22:08:47.918Z,10.40
2018-10-18T22:11:18.039Z,10.40
2018-10-18T22:13:47.006Z,10.40
2018-10-18T22:16:17.503Z,10.30
2018-10-18T22:18:47.021Z,10.40
2018-10-18T22:21:17.512Z,10.40
2018-10-18T22:23:47.226Z,10.20
2018-10-18T22:31:11.402Z,10.20
2018-10-18T22:33:40.836Z,10.00
2018-10-18T22:36:09.420Z,9.90
2018-10-18T22:38:38.065Z,10.00
2018-10-18T22:41:07.561Z,10.10
2018-10-18T22:43:36.382Z,10.10
2018-10-18T22:46:05.390Z,10.10
2018-10-18T22:48:34.004Z,10.10
2018-10-18T22:51:02.615Z,10.00
2018-10-18T22:53:31.615Z,10.00
2018-10-18T22:56:01.394Z,10.00
2018-10-18T22:58:30.038Z,10.00
2018-10-18T23:00:58.700Z,10.00
2018-10-18T23:03:27.333Z,10.00
2018-10-18T23:05:55.921Z,9.90
2018-10-18T23:08:25.773Z,10.00
2018-10-18T23:10:55.213Z,10.00
2018-10-18T23:13:24.239Z,10.00
2018-10-18T23:15:54.034Z,9.90
2018-10-18T23:18:22.970Z,9.90
2018-10-18T23:20:51.555Z,9.80
2018-10-18T23:23:20.199Z,9.70
2018-10-18T23:25:50.013Z,9.60
2018-10-18T23:28:19.695Z,9.60
2018-10-18T23:30:48.381Z,9.50
2018-10-18T23:33:17.442Z,9.50
2018-10-18T23:35:46.162Z,9.50
2018-10-18T23:43:17.444Z,9.50
2018-10-18T23:45:45.932Z,9.40
2018-10-18T23:53:09.360Z,9.40
2018-10-18T23:55:37.829Z,9.50
2018-10-18T23:58:06.484Z,9.40
